createdAt,value
2022-10-15T00:00:07.898Z,24.93
2022-10-15T00:02:34.353Z,25.63
2022-10-15T00:05:01.057Z,23.30
2022-10-15T00:07:28.456Z,24.97
2022-10-15T00:09:55.039Z,23.87
2022-10-15T00:12:21.466Z,23.23
2022-10-15T00:14:47.880Z,22.83
2022-10-15T00:17:14.276Z,22.50
2022-10-15T00:19:40.660Z,23.03
2022-10-15T00:22:07.120Z,25.50
2022-10-15T00:24:33.566Z,24.20
2022-10-15T00:27:00.013Z,23.73
2022-10-15T00:29:26.418Z,22.40
2022-10-15T00:31:52.869Z,23.93
2022-10-15T00:34:19.256Z,24.43
2022-10-15T00:36:45.769Z,21.77
2022-10-15T00:39:12.195Z,22.93
2022-10-15T00:41:41.873Z,24.73
2022-10-15T00:44:28.429Z,22.37
2022-10-15T00:46:59.243Z,22.37
2022-10-15T00:49:40.767Z,22.93
2022-10-15T00:52:11.010Z,24.13
2022-10-15T00:54:41.211Z,25.00
2022-10-15T00:57:08.423Z,24.50
2022-10-15T00:59:37.132Z,26.27
2022-10-15T01:02:03.549Z,25.50
2022-10-15T01:04:30.790Z,23.27
2022-10-15T01:06:57.169Z,24.97
2022-10-15T01:09:23.713Z,26.80
2022-10-15T01:11:54.754Z,25.90
2022-10-15T01:14:44.392Z,27.43
2022-10-15T01:17:13.715Z,28.73
2022-10-15T01:19:58.777Z,29.50
2022-10-15T01:23:02.807Z,29.43
2022-10-15T01:25:47.523Z,28.53
2022-10-15T01:28:16.810Z,30.80
2022-10-15T01:30:45.517Z,29.30
2022-10-15T01:33:23.085Z,32.97
2022-10-15T01:36:11.335Z,32.83
2022-10-15T01:39:00.708Z,32.63
2022-10-15T01:41:31.477Z,31.17
2022-10-15T01:44:04.923Z,30.30
2022-10-15T01:46:43.522Z,32.37
2022-10-15T01:49:12.492Z,30.83
2022-10-15T01:51:40.354Z,32.90
2022-10-15T01:54:10.153Z,32.03
2022-10-15T01:56:37.689Z,31.97
2022-10-15T01:59:05.255Z,31.90
2022-10-15T02:01:31.866Z,33.13
2022-10-15T02:03:58.619Z,34.63
2022-10-15T02:06:37.572Z,33.50
2022-10-15T02:09:42.808Z,33.57
2022-10-15T02:12:51.121Z,34.43
2022-10-15T02:15:19.277Z,32.87
2022-10-15T02:17:49.840Z,33.87
2022-10-15T02:20:24.563Z,35.73
2022-10-15T02:22:56.707Z,36.20
2022-10-15T02:25:24.642Z,35.47
2022-10-15T02:27:52.863Z,34.40
2022-10-15T02:30:19.615Z,34.50
2022-10-15T02:32:50.061Z,34.23
2022-10-15T02:35:16.766Z,34.07
2022-10-15T02:37:46.946Z,33.83
2022-10-15T02:40:13.434Z,33.03
2022-10-15T02:42:40.026Z,32.23
2022-10-15T02:45:07.199Z,34.63
2022-10-15T02:47:33.765Z,33.30
2022-10-15T02:50:00.355Z,32.70
2022-10-15T02:52:26.967Z,30.93
2022-10-15T02:54:53.409Z,34.67
2022-10-15T02:57:19.939Z,31.67
2022-10-15T02:59:46.325Z,34.63
2022-10-15T03:02:15.419Z,34.57
2022-10-15T03:04:44.881Z,33.90
2022-10-15T03:07:11.310Z,32.63
2022-10-15T03:09:37.704Z,34.83
2022-10-15T03:12:04.919Z,33.50
2022-10-15T03:14:31.489Z,35.30
2022-10-15T03:16:57.901Z,32.73
2022-10-15T03:19:24.296Z,32.77
2022-10-15T03:21:50.821Z,34.73
2022-10-15T03:24:17.196Z,34.67
2022-10-15T03:26:43.770Z,34.87
2022-10-15T03:29:10.187Z,32.17
2022-10-15T03:31:36.774Z,32.53
2022-10-15T03:34:03.254Z,33.00
2022-10-15T03:36:29.655Z,32.10
2022-10-15T03:38:56.224Z,31.07
2022-10-15T03:41:22.591Z,32.10
2022-10-15T03:43:48.980Z,31.40
2022-10-15T03:46:16.465Z,30.10
2022-10-15T03:48:42.900Z,30.80
2022-10-15T03:51:09.333Z,30.67
2022-10-15T03:53:35.875Z,31.03
2022-10-15T03:56:06.108Z,29.70
2022-10-15T03:58:32.686Z,29.80
2022-10-15T04:00:59.186Z,28.37
2022-10-15T04:03:25.686Z,30.07
2022-10-15T04:05:54.171Z,29.33
2022-10-15T04:08:21.763Z,30.03
2022-10-15T04:10:48.157Z,31.03
2022-10-15T04:13:14.568Z,30.33
2022-10-15T04:15:41.152Z,30.37
2022-10-15T04:18:07.737Z,29.33
2022-10-15T04:20:34.121Z,32.53
2022-10-15T04:23:00.537Z,32.47
2022-10-15T04:25:26.964Z,32.80
2022-10-15T04:27:53.790Z,31.13
2022-10-15T04:30:20.176Z,32.67
2022-10-15T04:32:46.646Z,31.80
2022-10-15T04:35:13.094Z,33.50
2022-10-15T04:37:39.513Z,34.17
2022-10-15T04:40:07.043Z,33.27
2022-10-15T04:42:33.474Z,35.47
2022-10-15T04:44:59.896Z,34.83
2022-10-15T04:47:26.764Z,34.83
2022-10-15T04:49:53.286Z,32.90
2022-10-15T04:52:20.302Z,32.57
2022-10-15T04:54:46.760Z,31.83
2022-10-15T04:57:13.372Z,34.97
2022-10-15T04:59:39.841Z,32.17
2022-10-15T05:02:06.307Z,33.03
2022-10-15T05:04:32.771Z,32.93
2022-10-15T05:06:59.161Z,31.03
2022-10-15T05:09:25.567Z,31.93
2022-10-15T05:11:52.004Z,34.03
2022-10-15T05:14:18.432Z,32.83
2022-10-15T05:16:44.805Z,32.47
2022-10-15T05:19:12.211Z,31.37
2022-10-15T05:21:38.695Z,32.87
2022-10-15T05:24:05.679Z,32.53
2022-10-15T05:26:32.551Z,32.60
2022-10-15T05:28:59.725Z,30.73
2022-10-15T05:31:30.024Z,33.63
2022-10-15T05:33:57.104Z,33.63
2022-10-15T05:36:27.422Z,33.77
2022-10-15T05:39:01.470Z,32.43
2022-10-15T05:41:28.851Z,32.37
2022-10-15T05:43:57.257Z,32.80
2022-10-15T05:46:23.896Z,34.90
2022-10-15T05:48:52.329Z,33.93
2022-10-15T05:51:19.120Z,33.37
2022-10-15T05:53:48.436Z,33.33
2022-10-15T05:56:15.254Z,33.70
2022-10-15T05:58:41.847Z,33.60
2022-10-15T06:01:10.939Z,30.80
2022-10-15T06:03:37.942Z,32.30
2022-10-15T06:06:04.821Z,33.57
2022-10-15T06:08:31.603Z,32.23
2022-10-15T06:11:09.345Z,33.67
2022-10-15T06:13:38.202Z,34.53
2022-10-15T06:16:04.764Z,32.53
2022-10-15T06:18:31.207Z,32.73
2022-10-15T06:20:57.624Z,33.60
2022-10-15T06:23:24.442Z,33.03
2022-10-15T06:25:51.330Z,31.93
2022-10-15T06:28:17.772Z,30.23
2022-10-15T06:30:44.305Z,30.07
2022-10-15T06:35:39.484Z,32.27
2022-10-15T06:38:05.899Z,31.37
2022-10-15T06:40:32.712Z,28.73
2022-10-15T06:43:07.915Z,31.77
2022-10-15T06:45:36.536Z,31.53
2022-10-15T06:48:06.358Z,33.60
2022-10-15T06:50:33.897Z,31.77
2022-10-15T06:53:00.514Z,32.43
2022-10-15T06:55:28.890Z,32.47
2022-10-15T06:57:59.206Z,34.43
2022-10-15T07:00:26.276Z,33.07
2022-10-15T07:02:52.844Z,32.30
2022-10-15T07:05:20.189Z,34.13
2022-10-15T07:07:53.784Z,33.73
2022-10-15T07:12:51.918Z,33.03
2022-10-15T07:15:19.131Z,32.77
2022-10-15T07:17:49.906Z,33.50
2022-10-15T07:20:20.247Z,32.67
2022-10-15T07:22:49.960Z,33.77
2022-10-15T07:25:16.416Z,32.60
2022-10-15T07:27:42.922Z,32.67
2022-10-15T07:30:10.040Z,31.47
2022-10-15T07:32:36.565Z,32.80
2022-10-15T07:35:03.226Z,31.70
2022-10-15T07:37:29.837Z,34.57
2022-10-15T07:39:56.303Z,32.57
2022-10-15T07:42:22.697Z,33.73
2022-10-15T07:44:49.101Z,31.93
2022-10-15T07:47:15.474Z,33.20
2022-10-15T07:49:41.927Z,32.97
2022-10-15T07:52:11.350Z,30.17
2022-10-15T07:54:37.882Z,33.23
2022-10-15T07:57:06.913Z,32.07
2022-10-15T07:59:34.321Z,32.97
2022-10-15T08:02:00.957Z,30.37
2022-10-15T08:04:28.540Z,32.97
2022-10-15T08:06:55.133Z,32.70
2022-10-15T08:09:21.738Z,32.27
2022-10-15T08:11:48.586Z,33.03
2022-10-15T08:14:15.080Z,31.63
2022-10-15T08:16:41.521Z,34.30
2022-10-15T08:19:08.006Z,31.53
2022-10-15T08:21:34.399Z,29.67
2022-10-15T08:24:00.890Z,29.33
2022-10-15T08:26:27.360Z,30.70
2022-10-15T08:28:53.829Z,29.43
2022-10-15T08:31:20.380Z,27.43
2022-10-15T08:33:46.758Z,27.77
2022-10-15T08:36:13.134Z,28.87
2022-10-15T08:38:39.573Z,25.90
2022-10-15T08:41:18.357Z,25.17
2022-10-15T08:43:46.629Z,26.67
2022-10-15T08:46:18.405Z,25.63
2022-10-15T08:48:47.962Z,23.73
2022-10-15T08:51:30.002Z,23.60
2022-10-15T08:53:58.499Z,23.00
2022-10-15T08:56:30.320Z,22.60
2022-10-15T08:59:14.545Z,22.13
2022-10-15T09:02:24.026Z,20.97
2022-10-15T09:05:16.433Z,21.00
2022-10-15T09:07:48.688Z,20.30
2022-10-15T09:10:40.126Z,18.17
2022-10-15T09:13:28.314Z,20.43
2022-10-15T09:16:12.320Z,21.93
2022-10-15T09:18:42.331Z,19.50
2022-10-15T09:21:09.322Z,19.07
2022-10-15T09:23:36.094Z,18.87
2022-10-15T09:26:06.533Z,17.30
2022-10-15T09:28:41.770Z,18.57
2022-10-15T09:31:10.207Z,17.17
2022-10-15T09:33:47.685Z,18.10
2022-10-15T09:36:26.303Z,18.20
2022-10-15T09:39:21.908Z,16.77
2022-10-15T09:41:56.722Z,16.63
2022-10-15T09:44:25.682Z,20.20
2022-10-15T09:46:52.421Z,18.57
2022-10-15T09:49:29.392Z,18.87
2022-10-15T09:52:08.693Z,17.80
2022-10-15T09:54:45.567Z,18.23
2022-10-15T09:57:13.335Z,17.83
2022-10-15T09:59:52.713Z,18.47
2022-10-15T10:02:21.351Z,16.97
2022-10-15T10:04:47.839Z,16.60
2022-10-15T10:07:37.024Z,17.30
2022-10-15T10:10:23.038Z,17.07
2022-10-15T10:12:49.529Z,16.20
2022-10-15T10:15:21.645Z,16.97
2022-10-15T10:17:55.961Z,16.67
2022-10-15T10:20:24.522Z,18.73
2022-10-15T10:22:55.335Z,17.80
2022-10-15T10:25:37.120Z,18.33
2022-10-15T10:28:09.872Z,18.80
2022-10-15T10:30:38.074Z,17.70
2022-10-15T10:33:05.179Z,18.20
2022-10-15T10:35:50.844Z,20.60
2022-10-15T10:38:22.613Z,19.27
2022-10-15T10:40:59.068Z,20.40
2022-10-15T10:43:28.925Z,21.80
2022-10-15T10:46:05.311Z,22.60
2022-10-15T10:48:46.079Z,20.93
2022-10-15T10:51:19.537Z,20.53
2022-10-15T10:53:58.266Z,19.57
2022-10-15T10:56:34.887Z,18.60
2022-10-15T10:59:21.125Z,21.60
2022-10-15T11:01:50.242Z,21.90
2022-10-15T11:04:24.775Z,23.37
2022-10-15T11:06:54.919Z,23.50
2022-10-15T11:09:56.868Z,23.90
2022-10-15T11:12:57.490Z,25.40
2022-10-15T11:15:28.875Z,25.77
2022-10-15T11:18:24.253Z,30.83
2022-10-15T11:21:03.097Z,28.80
2022-10-15T11:23:46.254Z,29.63
2022-10-15T11:26:52.479Z,28.33
2022-10-15T11:29:44.850Z,29.90
2022-10-15T11:32:42.435Z,31.47
2022-10-15T11:35:55.683Z,31.30
2022-10-15T11:38:29.543Z,38.83
2022-10-15T11:41:30.057Z,28.87
2022-10-15T11:44:08.707Z,27.70
2022-10-15T11:47:17.519Z,26.70
2022-10-15T11:49:50.918Z,25.40
2022-10-15T11:53:02.477Z,25.10
2022-10-15T11:55:37.399Z,24.60
2022-10-15T11:58:23.515Z,22.03
2022-10-15T12:00:52.897Z,23.30
2022-10-15T12:03:23.994Z,18.20
2022-10-15T12:05:54.019Z,16.73
2022-10-15T12:08:21.290Z,16.10
2022-10-15T12:11:04.689Z,13.67
2022-10-15T12:13:40.503Z,12.77
2022-10-15T12:16:32.262Z,12.10
2022-10-15T12:19:16.571Z,12.90
2022-10-15T12:21:55.109Z,12.00
2022-10-15T12:24:40.773Z,13.37
2022-10-15T12:27:19.664Z,12.80
2022-10-15T12:29:59.506Z,13.57
2022-10-15T12:32:31.281Z,13.83
2022-10-15T12:37:49.858Z,12.97
2022-10-15T12:40:21.899Z,13.03
2022-10-15T12:42:55.866Z,14.73
2022-10-15T12:45:24.601Z,14.13
2022-10-15T12:48:22.388Z,14.43
2022-10-15T12:50:49.151Z,14.47
2022-10-15T12:53:34.401Z,19.00
2022-10-15T12:56:10.048Z,15.63
2022-10-15T12:58:45.119Z,15.03
2022-10-15T13:01:14.569Z,14.17
2022-10-15T13:03:52.821Z,16.37
2022-10-15T13:06:22.497Z,15.87
2022-10-15T13:09:16.794Z,16.23
2022-10-15T13:11:45.973Z,15.17
2022-10-15T13:14:12.323Z,15.77
2022-10-15T13:16:43.624Z,16.73
2022-10-15T13:19:18.279Z,15.53
2022-10-15T13:22:04.468Z,14.63
2022-10-15T13:24:42.024Z,15.57
2022-10-15T13:27:22.024Z,15.43
2022-10-15T13:29:55.688Z,15.77
2022-10-15T13:32:23.050Z,15.80
2022-10-15T13:34:49.902Z,15.80
2022-10-15T13:37:24.842Z,17.03
2022-10-15T13:39:52.375Z,16.77
2022-10-15T13:42:23.883Z,20.70
2022-10-15T13:45:17.461Z,16.17
2022-10-15T13:47:52.679Z,17.20
2022-10-15T13:50:34.675Z,16.60
2022-10-15T13:53:24.174Z,17.53
2022-10-15T13:55:53.677Z,21.83
2022-10-15T13:58:27.623Z,18.47
2022-10-15T14:00:58.772Z,18.40
2022-10-15T14:03:27.513Z,19.47
2022-10-15T14:05:55.576Z,21.53
2022-10-15T14:08:24.850Z,20.70
2022-10-15T14:10:54.683Z,22.10
2022-10-15T14:13:21.303Z,20.53
2022-10-15T14:15:52.448Z,21.70
2022-10-15T14:18:28.385Z,22.90
2022-10-15T14:20:55.265Z,21.33
2022-10-15T14:23:26.274Z,23.47
2022-10-15T14:25:54.760Z,23.23
2022-10-15T14:28:22.870Z,23.20
2022-10-15T14:30:49.492Z,23.20
2022-10-15T14:33:38.008Z,22.53
2022-10-15T14:36:15.254Z,22.00
2022-10-15T14:38:42.303Z,18.83
2022-10-15T14:41:28.737Z,21.20
2022-10-15T14:44:05.748Z,22.03
2022-10-15T14:46:39.033Z,21.73
2022-10-15T14:49:15.578Z,21.30
2022-10-15T14:51:42.051Z,21.73
2022-10-15T14:54:19.318Z,21.57
2022-10-15T14:56:49.044Z,21.93
2022-10-15T14:59:18.771Z,22.30
2022-10-15T15:02:04.576Z,20.73
2022-10-15T15:04:39.994Z,21.20
2022-10-15T15:07:11.914Z,21.37
2022-10-15T15:09:39.936Z,19.83
2022-10-15T15:12:06.417Z,21.77
2022-10-15T15:14:32.915Z,20.23
2022-10-15T15:16:59.313Z,20.60
2022-10-15T15:19:25.719Z,20.03
2022-10-15T15:21:52.182Z,18.60
2022-10-15T15:24:18.646Z,19.13
2022-10-15T15:26:45.261Z,18.63
2022-10-15T15:29:13.948Z,18.60
2022-10-15T15:31:40.576Z,17.47
2022-10-15T15:34:07.079Z,16.73
2022-10-15T15:36:33.650Z,14.60
2022-10-15T15:39:00.126Z,14.17
2022-10-15T15:41:26.610Z,13.23
2022-10-15T15:43:54.862Z,13.23
2022-10-15T15:46:21.274Z,11.63
2022-10-15T15:48:47.887Z,11.27
2022-10-15T15:51:24.291Z,11.87
2022-10-15T15:53:51.040Z,11.70
2022-10-15T15:56:17.932Z,10.40
2022-10-15T15:58:44.702Z,9.73
2022-10-15T16:01:11.522Z,9.90
2022-10-15T16:03:38.153Z,8.47
2022-10-15T16:06:06.237Z,7.87
2022-10-15T16:08:33.116Z,7.23
2022-10-15T16:11:04.135Z,7.97
2022-10-15T16:13:30.810Z,7.77
2022-10-15T16:15:57.282Z,7.33
2022-10-15T16:18:23.824Z,7.90
2022-10-15T16:20:50.907Z,7.47
2022-10-15T16:23:17.502Z,7.53
2022-10-15T16:25:44.405Z,5.97
2022-10-15T16:28:10.914Z,5.73
2022-10-15T16:30:37.363Z,5.53
2022-10-15T16:33:09.795Z,6.03
2022-10-15T16:35:36.525Z,5.47
2022-10-15T16:38:02.974Z,4.73
2022-10-15T16:40:29.741Z,3.97
2022-10-15T16:42:56.294Z,5.43
2022-10-15T16:45:23.860Z,4.57
2022-10-15T16:47:50.495Z,5.13
2022-10-15T16:50:17.071Z,4.57
2022-10-15T16:52:43.475Z,4.20
2022-10-15T16:55:10.283Z,5.10
2022-10-15T16:57:36.886Z,4.60
2022-10-15T17:00:04.206Z,4.53
2022-10-15T17:02:30.768Z,4.67
2022-10-15T17:04:57.191Z,4.93
2022-10-15T17:07:24.111Z,4.43
2022-10-15T17:09:50.835Z,4.37
2022-10-15T17:12:17.659Z,4.17
2022-10-15T17:14:49.453Z,4.20
2022-10-15T17:17:15.865Z,4.33
2022-10-15T17:19:42.262Z,4.27
2022-10-15T17:22:08.663Z,4.73
2022-10-15T17:24:35.061Z,4.93
2022-10-15T17:27:01.491Z,5.07
2022-10-15T17:29:30.843Z,5.17
2022-10-15T17:32:00.545Z,5.13
2022-10-15T17:34:27.993Z,4.80
2022-10-15T17:36:55.976Z,5.30
2022-10-15T17:39:22.825Z,4.77
2022-10-15T17:41:50.810Z,5.37
2022-10-15T17:44:17.401Z,5.73
2022-10-15T17:46:43.921Z,6.40
2022-10-15T17:49:11.470Z,5.87
2022-10-15T17:51:37.960Z,5.70
2022-10-15T17:54:04.465Z,5.70
2022-10-15T17:56:32.858Z,6.87
2022-10-15T17:59:00.771Z,6.00
2022-10-15T18:01:58.655Z,6.80
2022-10-15T18:04:27.121Z,6.23
2022-10-15T18:06:53.591Z,6.70
2022-10-15T18:09:20.125Z,6.40
2022-10-15T18:11:48.130Z,7.20
2022-10-15T18:14:14.705Z,6.90
2022-10-15T18:16:41.122Z,6.43
2022-10-15T18:19:08.062Z,6.60
2022-10-15T18:21:34.566Z,7.30
2022-10-15T18:24:01.040Z,7.30
2022-10-15T18:26:27.556Z,7.63
2022-10-15T18:28:54.970Z,8.43
2022-10-15T18:31:22.261Z,6.90
2022-10-15T18:33:55.420Z,7.07
2022-10-15T18:36:24.638Z,8.03
2022-10-15T18:38:51.207Z,7.47
2022-10-15T18:41:21.012Z,7.50
2022-10-15T18:43:55.706Z,7.80
2022-10-15T18:46:22.479Z,8.47
2022-10-15T18:48:49.323Z,7.83
2022-10-15T18:51:15.748Z,7.73
2022-10-15T18:53:42.174Z,7.60
2022-10-15T18:56:09.319Z,9.17
2022-10-15T18:58:36.477Z,9.37
2022-10-15T19:01:33.839Z,9.33
2022-10-15T19:04:03.014Z,10.57
2022-10-15T19:06:35.654Z,9.37
2022-10-15T19:09:04.174Z,9.80
2022-10-15T19:11:31.483Z,10.30
2022-10-15T19:13:58.922Z,10.63
2022-10-15T19:16:25.536Z,10.27
2022-10-15T19:18:52.216Z,11.03
2022-10-15T19:21:18.638Z,10.53
2022-10-15T19:23:45.072Z,11.17
2022-10-15T19:26:12.677Z,12.27
2022-10-15T19:28:39.498Z,11.17
2022-10-15T19:31:08.025Z,12.33
2022-10-15T19:33:35.019Z,11.07
2022-10-15T19:36:01.540Z,11.77
2022-10-15T19:38:28.500Z,11.67
2022-10-15T19:40:55.326Z,11.30
2022-10-15T19:43:23.197Z,10.93
2022-10-15T19:45:50.072Z,11.17
2022-10-15T19:48:18.670Z,12.20
2022-10-15T19:50:47.003Z,12.90
2022-10-15T19:53:16.341Z,10.83
2022-10-15T19:55:43.915Z,11.77
2022-10-15T19:58:10.349Z,11.63
2022-10-15T20:00:37.220Z,11.37
2022-10-15T20:03:03.723Z,10.87
2022-10-15T20:05:30.120Z,11.47
2022-10-15T20:07:56.592Z,10.83
2022-10-15T20:10:25.889Z,11.60
2022-10-15T20:12:52.905Z,10.10
2022-10-15T20:15:19.454Z,10.27
2022-10-15T20:17:46.792Z,10.27
2022-10-15T20:20:13.230Z,10.57
2022-10-15T20:22:39.697Z,9.83
2022-10-15T20:25:06.246Z,10.07
2022-10-15T20:27:32.912Z,10.00
2022-10-15T20:29:59.315Z,10.27
2022-10-15T20:32:41.223Z,10.00
2022-10-15T20:35:08.369Z,10.30
2022-10-15T20:37:34.924Z,10.57
2022-10-15T20:40:01.382Z,9.73
2022-10-15T20:42:28.022Z,9.77
2022-10-15T20:44:54.791Z,10.50
2022-10-15T20:47:21.602Z,9.60
2022-10-15T20:49:49.704Z,10.17
2022-10-15T20:52:16.317Z,9.87
2022-10-15T20:54:42.789Z,10.47
2022-10-15T20:57:09.588Z,10.07
2022-10-15T20:59:36.022Z,10.70
2022-10-15T21:02:02.467Z,10.40
2022-10-15T21:04:28.983Z,10.70
2022-10-15T21:06:55.416Z,10.53
2022-10-15T21:09:21.887Z,10.37
2022-10-15T21:11:48.315Z,10.30
2022-10-15T21:14:15.097Z,10.53
2022-10-15T21:16:41.916Z,11.37
2022-10-15T21:19:08.693Z,10.90
2022-10-15T21:21:35.261Z,10.63
2022-10-15T21:24:01.728Z,11.17
2022-10-15T21:26:28.192Z,11.43
2022-10-15T21:28:59.146Z,11.20
2022-10-15T21:31:26.560Z,11.20
2022-10-15T21:33:54.911Z,10.37
2022-10-15T21:36:28.487Z,12.63
2022-10-15T21:39:03.535Z,11.87
2022-10-15T21:41:32.465Z,11.33
2022-10-15T21:44:00.489Z,12.33
2022-10-15T21:46:27.775Z,11.63
2022-10-15T21:48:54.317Z,12.87
2022-10-15T21:51:26.303Z,12.53
2022-10-15T21:53:53.849Z,12.53
2022-10-15T21:56:20.346Z,12.93
2022-10-15T21:58:46.839Z,12.27
2022-10-15T22:01:23.591Z,12.17
2022-10-15T22:03:52.242Z,13.87
2022-10-15T22:06:20.547Z,13.07
2022-10-15T22:08:47.447Z,13.33
2022-10-15T22:11:16.902Z,12.20
2022-10-15T22:13:45.486Z,12.63
2022-10-15T22:16:13.107Z,12.23
2022-10-15T22:18:40.062Z,12.17
2022-10-15T22:21:15.630Z,12.07
2022-10-15T22:23:47.356Z,11.00
2022-10-15T22:26:15.147Z,12.33
2022-10-15T22:28:42.036Z,10.57
2022-10-15T22:31:11.463Z,10.93
2022-10-15T22:33:38.714Z,10.63
2022-10-15T22:36:13.338Z,9.00
2022-10-15T22:38:40.861Z,9.77
2022-10-15T22:41:07.658Z,9.77
2022-10-15T22:43:34.563Z,8.87
2022-10-15T22:46:01.062Z,8.07
2022-10-15T22:48:27.514Z,8.23
2022-10-15T22:51:01.054Z,8.00
2022-10-15T22:53:27.802Z,8.13
2022-10-15T22:55:56.108Z,6.53
2022-10-15T22:58:22.937Z,5.70
2022-10-15T23:00:49.372Z,5.10
2022-10-15T23:03:15.835Z,5.30
2022-10-15T23:05:42.329Z,5.87
2022-10-15T23:08:08.775Z,5.90
2022-10-15T23:10:35.592Z,5.10
2022-10-15T23:13:02.016Z,5.47
2022-10-15T23:15:28.614Z,5.93
2022-10-15T23:17:55.001Z,4.20
2022-10-15T23:20:21.563Z,3.30
2022-10-15T23:22:48.005Z,3.40
2022-10-15T23:25:14.504Z,3.07
2022-10-15T23:27:40.928Z,2.43
2022-10-15T23:30:14.700Z,2.83
2022-10-15T23:32:50.621Z,3.33
2022-10-15T23:35:17.043Z,2.87
2022-10-15T23:37:43.839Z,2.73
2022-10-15T23:40:10.595Z,3.10
2022-10-15T23:42:36.977Z,3.23
2022-10-15T23:45:03.800Z,3.40
2022-10-15T23:47:30.364Z,3.10
2022-10-15T23:49:57.100Z,2.80
2022-10-15T23:52:23.584Z,2.93
2022-10-15T23:54:51.142Z,2.73
2022-10-15T23:57:17.573Z,2.87
2022-10-15T23:59:44.008Z,2.50
